sensor_id;sensor_type;location;lat;lon;timestamp;temperature;humidity
23633;DHT22;11993;48.748;9.166;2023-12-20T00:01:22;5.50;83.00
23633;DHT22;11993;48.748;9.166;2023-12-20T00:03:48;5.60;83.00
23633;DHT22;11993;48.748;9.166;2023-12-20T00:06:13;5.60;83.00
23633;DHT22;11993;48.748;9.166;2023-12-20T00:08:39;5.60;83.00
23633;DHT22;11993;48.748;9.166;2023-12-20T00:11:05;5.60;82.90
23633;DHT22;11993;48.748;9.166;2023-12-20T00:13:30;5.60;83.00
23633;DHT22;11993;48.748;9.166;2023-12-20T00:15:56;5.60;83.10
23633;DHT22;11993;48.748;9.166;2023-12-20T00:18:21;5.70;82.80
23633;DHT22;11993;48.748;9.166;2023-12-20T00:20:47;5.70;83.00
23633;DHT22;11993;48.748;9.166;2023-12-20T00:23:12;5.60;82.90
23633;DHT22;11993;48.748;9.166;2023-12-20T00:25:38;5.70;83.30
23633;DHT22;11993;48.748;9.166;2023-12-20T00:28:03;5.60;83.30
23633;DHT22;11993;48.748;9.166;2023-12-20T00:30:29;5.70;83.40
23633;DHT22;11993;48.748;9.166;2023-12-20T00:32:55;5.60;83.70
23633;DHT22;11993;48.748;9.166;2023-12-20T00:35:21;5.70;83.60
23633;DHT22;11993;48.748;9.166;2023-12-20T00:37:47;5.70;83.80
23633;DHT22;11993;48.748;9.166;2023-12-20T00:40:12;5.70;83.80
23633;DHT22;11993;48.748;9.166;2023-12-20T00:42:38;5.60;84.00
23633;DHT22;11993;48.748;9.166;2023-12-20T00:45:04;5.60;84.10
23633;DHT22;11993;48.748;9.166;2023-12-20T00:47:30;5.70;84.30
23633;DHT22;11993;48.748;9.166;2023-12-20T00:49:56;5.60;84.80
23633;DHT22;11993;48.748;9.166;2023-12-20T00:52:21;5.60;85.40
23633;DHT22;11993;48.748;9.166;2023-12-20T00:54:48;5.50;85.90
23633;DHT22;11993;48.748;9.166;2023-12-20T00:57:14;5.50;85.90
23633;DHT22;11993;48.748;9.166;2023-12-20T00:59:39;5.50;86.10
23633;DHT22;11993;48.748;9.166;2023-12-20T01:02:05;5.50;86.00
23633;DHT22;11993;48.748;9.166;2023-12-20T01:04:30;5.50;86.30
23633;DHT22;11993;48.748;9.166;2023-12-20T01:06:59;5.50;86.60
23633;DHT22;11993;48.748;9.166;2023-12-20T01:09:24;5.50;86.70
23633;DHT22;11993;48.748;9.166;2023-12-20T01:11:52;5.50;86.90
23633;DHT22;11993;48.748;9.166;2023-12-20T01:14:18;5.40;87.30
23633;DHT22;11993;48.748;9.166;2023-12-20T01:16:43;5.30;87.80
23633;DHT22;11993;48.748;9.166;2023-12-20T01:19:09;5.30;87.70
23633;DHT22;11993;48.748;9.166;2023-12-20T01:21:35;5.30;87.90
23633;DHT22;11993;48.748;9.166;2023-12-20T01:24:00;5.40;87.90
23633;DHT22;11993;48.748;9.166;2023-12-20T01:26:26;5.30;88.40
23633;DHT22;11993;48.748;9.166;2023-12-20T01:28:51;5.30;88.60
23633;DHT22;11993;48.748;9.166;2023-12-20T01:31:17;5.20;88.50
23633;DHT22;11993;48.748;9.166;2023-12-20T01:33:42;5.30;88.80
23633;DHT22;11993;48.748;9.166;2023-12-20T01:36:08;5.20;89.00
23633;DHT22;11993;48.748;9.166;2023-12-20T01:38:34;5.30;88.80
23633;DHT22;11993;48.748;9.166;2023-12-20T01:41:00;5.40;88.60
23633;DHT22;11993;48.748;9.166;2023-12-20T01:43:25;5.40;88.50
23633;DHT22;11993;48.748;9.166;2023-12-20T01:45:51;5.40;88.60
23633;DHT22;11993;48.748;9.166;2023-12-20T01:48:18;5.30;88.80
23633;DHT22;11993;48.748;9.166;2023-12-20T01:50:45;5.40;88.90
23633;DHT22;11993;48.748;9.166;2023-12-20T01:53:12;5.40;88.80
23633;DHT22;11993;48.748;9.166;2023-12-20T01:55:40;5.50;88.70
23633;DHT22;11993;48.748;9.166;2023-12-20T01:58:09;5.30;88.80
23633;DHT22;11993;48.748;9.166;2023-12-20T02:00:36;5.40;89.00
23633;DHT22;11993;48.748;9.166;2023-12-20T02:03:02;5.40;89.10
23633;DHT22;11993;48.748;9.166;2023-12-20T02:05:30;5.30;89.30
23633;DHT22;11993;48.748;9.166;2023-12-20T02:07:56;5.30;89.30
23633;DHT22;11993;48.748;9.166;2023-12-20T02:10:21;5.40;89.10
23633;DHT22;11993;48.748;9.166;2023-12-20T02:12:47;5.30;89.30
23633;DHT22;11993;48.748;9.166;2023-12-20T02:15:12;5.40;89.10
23633;DHT22;11993;48.748;9.166;2023-12-20T02:17:38;5.40;89.00
23633;DHT22;11993;48.748;9.166;2023-12-20T02:20:05;5.40;89.10
23633;DHT22;11993;48.748;9.166;2023-12-20T02:22:31;5.50;88.90
23633;DHT22;11993;48.748;9.166;2023-12-20T02:24:57;5.40;88.90
23633;DHT22;11993;48.748;9.166;2023-12-20T02:27:23;5.60;88.80
23633;DHT22;11993;48.748;9.166;2023-12-20T02:29:50;5.50;89.00
23633;DHT22;11993;48.748;9.166;2023-12-20T02:32:17;5.50;88.80
23633;DHT22;11993;48.748;9.166;2023-12-20T02:34:43;5.60;88.70
23633;DHT22;11993;48.748;9.166;2023-12-20T02:37:08;5.60;88.80
23633;DHT22;11993;48.748;9.166;2023-12-20T02:39:34;5.50;88.70
23633;DHT22;11993;48.748;9.166;2023-12-20T02:41:59;5.60;88.90
23633;DHT22;11993;48.748;9.166;2023-12-20T02:44:25;5.60;88.70
23633;DHT22;11993;48.748;9.166;2023-12-20T02:46:50;5.60;88.60
23633;DHT22;11993;48.748;9.166;2023-12-20T02:49:16;5.60;88.50
23633;DHT22;11993;48.748;9.166;2023-12-20T02:51:42;5.60;88.40
23633;DHT22;11993;48.748;9.166;2023-12-20T02:54:07;5.70;88.50
23633;DHT22;11993;48.748;9.166;2023-12-20T02:56:33;5.60;88.80
23633;DHT22;11993;48.748;9.166;2023-12-20T02:58:59;5.60;88.70
23633;DHT22;11993;48.748;9.166;2023-12-20T03:01:24;5.70;88.60
23633;DHT22;11993;48.748;9.166;2023-12-20T03:03:50;5.70;88.40
23633;DHT22;11993;48.748;9.166;2023-12-20T03:06:18;5.70;88.60
23633;DHT22;11993;48.748;9.166;2023-12-20T03:08:44;5.80;88.50
23633;DHT22;11993;48.748;9.166;2023-12-20T03:11:09;5.80;88.30
23633;DHT22;11993;48.748;9.166;2023-12-20T03:13:35;5.70;88.40
23633;DHT22;11993;48.748;9.166;2023-12-20T03:16:01;5.80;88.30
23633;DHT22;11993;48.748;9.166;2023-12-20T03:18:26;5.70;88.30
23633;DHT22;11993;48.748;9.166;2023-12-20T03:20:53;5.70;88.40
23633;DHT22;11993;48.748;9.166;2023-12-20T03:23:19;5.70;88.50
23633;DHT22;11993;48.748;9.166;2023-12-20T03:25:44;5.70;88.60
23633;DHT22;11993;48.748;9.166;2023-12-20T03:28:10;5.70;88.50
23633;DHT22;11993;48.748;9.166;2023-12-20T03:30:36;5.80;88.60
23633;DHT22;11993;48.748;9.166;2023-12-20T03:33:01;5.70;88.70
23633;DHT22;11993;48.748;9.166;2023-12-20T03:35:27;5.70;88.70
23633;DHT22;11993;48.748;9.166;2023-12-20T03:37:52;5.60;88.70
23633;DHT22;11993;48.748;9.166;2023-12-20T03:40:18;5.70;88.50
23633;DHT22;11993;48.748;9.166;2023-12-20T03:42:44;5.60;88.40
23633;DHT22;11993;48.748;9.166;2023-12-20T03:45:09;5.60;88.30
23633;DHT22;11993;48.748;9.166;2023-12-20T03:47:35;5.60;88.50
23633;DHT22;11993;48.748;9.166;2023-12-20T03:50:01;5.70;88.40
23633;DHT22;11993;48.748;9.166;2023-12-20T03:52:27;5.60;88.20
23633;DHT22;11993;48.748;9.166;2023-12-20T03:54:52;5.60;88.20
23633;DHT22;11993;48.748;9.166;2023-12-20T03:57:18;5.50;88.00
23633;DHT22;11993;48.748;9.166;2023-12-20T03:59:43;5.40;87.80
23633;DHT22;11993;48.748;9.166;2023-12-20T04:02:09;5.50;87.80
23633;DHT22;11993;48.748;9.166;2023-12-20T04:04:34;5.40;88.10
23633;DHT22;11993;48.748;9.166;2023-12-20T04:07:00;5.30;88.20
23633;DHT22;11993;48.748;9.166;2023-12-20T04:09:26;5.40;87.90
23633;DHT22;11993;48.748;9.166;2023-12-20T04:11:51;5.50;87.70
23633;DHT22;11993;48.748;9.166;2023-12-20T04:14:17;5.40;87.80
23633;DHT22;11993;48.748;9.166;2023-12-20T04:16:42;5.30;87.90
23633;DHT22;11993;48.748;9.166;2023-12-20T04:19:08;5.30;88.00
23633;DHT22;11993;48.748;9.166;2023-12-20T04:21:33;5.30;87.90
23633;DHT22;11993;48.748;9.166;2023-12-20T04:23:59;5.40;87.70
23633;DHT22;11993;48.748;9.166;2023-12-20T04:26:25;5.30;87.60
23633;DHT22;11993;48.748;9.166;2023-12-20T04:28:51;5.30;87.70
23633;DHT22;11993;48.748;9.166;2023-12-20T04:31:16;5.40;87.50
23633;DHT22;11993;48.748;9.166;2023-12-20T04:33:42;5.30;87.60
23633;DHT22;11993;48.748;9.166;2023-12-20T04:36:08;5.40;87.50
23633;DHT22;11993;48.748;9.166;2023-12-20T04:38:34;5.30;87.70
23633;DHT22;11993;48.748;9.166;2023-12-20T04:41:00;5.20;87.80
23633;DHT22;11993;48.748;9.166;2023-12-20T04:43:25;5.20;87.80
23633;DHT22;11993;48.748;9.166;2023-12-20T04:45:51;5.20;88.00
23633;DHT22;11993;48.748;9.166;2023-12-20T04:48:17;5.20;87.90
23633;DHT22;11993;48.748;9.166;2023-12-20T04:50:42;5.20;88.10
23633;DHT22;11993;48.748;9.166;2023-12-20T04:53:08;5.20;87.90
23633;DHT22;11993;48.748;9.166;2023-12-20T04:55:33;5.20;87.50
23633;DHT22;11993;48.748;9.166;2023-12-20T04:57:59;5.10;87.80
23633;DHT22;11993;48.748;9.166;2023-12-20T05:00:24;5.10;87.80
23633;DHT22;11993;48.748;9.166;2023-12-20T05:02:50;5.10;87.80
23633;DHT22;11993;48.748;9.166;2023-12-20T05:05:16;5.10;87.80
23633;DHT22;11993;48.748;9.166;2023-12-20T05:07:43;5.20;87.50
23633;DHT22;11993;48.748;9.166;2023-12-20T05:10:09;5.10;87.50
23633;DHT22;11993;48.748;9.166;2023-12-20T05:12:35;5.10;87.60
23633;DHT22;11993;48.748;9.166;2023-12-20T05:15:00;5.10;87.90
23633;DHT22;11993;48.748;9.166;2023-12-20T05:17:26;5.00;88.00
23633;DHT22;11993;48.748;9.166;2023-12-20T05:19:52;5.10;88.20
23633;DHT22;11993;48.748;9.166;2023-12-20T05:22:18;5.00;88.60
23633;DHT22;11993;48.748;9.166;2023-12-20T05:24:44;5.00;88.50
23633;DHT22;11993;48.748;9.166;2023-12-20T05:27:10;4.90;88.90
23633;DHT22;11993;48.748;9.166;2023-12-20T05:29:40;4.90;89.00
23633;DHT22;11993;48.748;9.166;2023-12-20T05:32:05;4.90;89.30
23633;DHT22;11993;48.748;9.166;2023-12-20T05:34:31;5.00;89.10
23633;DHT22;11993;48.748;9.166;2023-12-20T05:36:57;5.00;89.00
23633;DHT22;11993;48.748;9.166;2023-12-20T05:39:23;4.90;89.10
23633;DHT22;11993;48.748;9.166;2023-12-20T05:41:49;4.90;89.20
23633;DHT22;11993;48.748;9.166;2023-12-20T05:44:14;4.90;89.30
23633;DHT22;11993;48.748;9.166;2023-12-20T05:46:41;4.90;89.40
23633;DHT22;11993;48.748;9.166;2023-12-20T05:49:07;4.80;89.50
23633;DHT22;11993;48.748;9.166;2023-12-20T05:51:32;4.90;89.70
23633;DHT22;11993;48.748;9.166;2023-12-20T05:53:58;4.80;89.90
23633;DHT22;11993;48.748;9.166;2023-12-20T05:56:24;4.90;89.80
23633;DHT22;11993;48.748;9.166;2023-12-20T05:58:49;4.90;89.80
23633;DHT22;11993;48.748;9.166;2023-12-20T06:01:15;4.90;89.80
23633;DHT22;11993;48.748;9.166;2023-12-20T06:03:42;5.00;89.90
23633;DHT22;11993;48.748;9.166;2023-12-20T06:06:08;5.00;89.90
23633;DHT22;11993;48.748;9.166;2023-12-20T06:08:34;5.00;90.10
23633;DHT22;11993;48.748;9.166;2023-12-20T06:11:00;5.00;90.00
23633;DHT22;11993;48.748;9.166;2023-12-20T06:13:25;5.00;90.10
23633;DHT22;11993;48.748;9.166;2023-12-20T06:15:54;5.00;89.90
23633;DHT22;11993;48.748;9.166;2023-12-20T06:18:20;5.00;89.90
23633;DHT22;11993;48.748;9.166;2023-12-20T06:20:46;5.10;89.80
23633;DHT22;11993;48.748;9.166;2023-12-20T06:23:11;5.10;89.90
23633;DHT22;11993;48.748;9.166;2023-12-20T06:25:37;5.10;89.80
23633;DHT22;11993;48.748;9.166;2023-12-20T06:28:03;5.10;89.90
23633;DHT22;11993;48.748;9.166;2023-12-20T06:30:28;5.20;89.70
23633;DHT22;11993;48.748;9.166;2023-12-20T06:32:54;5.20;89.70
23633;DHT22;11993;48.748;9.166;2023-12-20T06:35:20;5.10;89.90
23633;DHT22;11993;48.748;9.166;2023-12-20T06:37:46;5.20;89.60
23633;DHT22;11993;48.748;9.166;2023-12-20T06:40:12;5.20;89.40
23633;DHT22;11993;48.748;9.166;2023-12-20T06:42:37;5.20;89.50
23633;DHT22;11993;48.748;9.166;2023-12-20T06:45:03;5.20;89.40
23633;DHT22;11993;48.748;9.166;2023-12-20T06:47:29;5.30;89.80
23633;DHT22;11993;48.748;9.166;2023-12-20T06:49:55;5.20;89.70
23633;DHT22;11993;48.748;9.166;2023-12-20T06:52:21;5.40;89.50
23633;DHT22;11993;48.748;9.166;2023-12-20T06:54:46;5.40;89.50
23633;DHT22;11993;48.748;9.166;2023-12-20T06:57:12;5.30;89.50
23633;DHT22;11993;48.748;9.166;2023-12-20T06:59:41;5.30;89.50
23633;DHT22;11993;48.748;9.166;2023-12-20T07:02:06;5.40;89.40
23633;DHT22;11993;48.748;9.166;2023-12-20T07:04:33;5.30;89.30
23633;DHT22;11993;48.748;9.166;2023-12-20T07:06:59;5.30;89.40
23633;DHT22;11993;48.748;9.166;2023-12-20T07:09:26;5.20;89.80
23633;DHT22;11993;48.748;9.166;2023-12-20T07:11:52;5.30;89.60
23633;DHT22;11993;48.748;9.166;2023-12-20T07:14:17;5.40;89.60
23633;DHT22;11993;48.748;9.166;2023-12-20T07:16:43;5.50;89.60
23633;DHT22;11993;48.748;9.166;2023-12-20T07:19:09;5.50;89.40
23633;DHT22;11993;48.748;9.166;2023-12-20T07:21:34;5.60;89.10
23633;DHT22;11993;48.748;9.166;2023-12-20T07:24:00;5.50;89.30
23633;DHT22;11993;48.748;9.166;2023-12-20T07:26:25;5.50;89.00
23633;DHT22;11993;48.748;9.166;2023-12-20T07:28:51;5.50;88.90
23633;DHT22;11993;48.748;9.166;2023-12-20T07:31:16;5.50;89.20
23633;DHT22;11993;48.748;9.166;2023-12-20T07:33:42;5.40;89.30
23633;DHT22;11993;48.748;9.166;2023-12-20T07:36:07;5.30;89.40
23633;DHT22;11993;48.748;9.166;2023-12-20T07:38:33;5.20;89.20
23633;DHT22;11993;48.748;9.166;2023-12-20T07:40:59;5.20;89.00
23633;DHT22;11993;48.748;9.166;2023-12-20T07:43:24;5.20;89.00
23633;DHT22;11993;48.748;9.166;2023-12-20T07:45:50;5.10;89.20
23633;DHT22;11993;48.748;9.166;2023-12-20T07:48:16;5.20;89.00
23633;DHT22;11993;48.748;9.166;2023-12-20T07:50:41;5.00;88.80
23633;DHT22;11993;48.748;9.166;2023-12-20T07:53:07;5.00;88.70
23633;DHT22;11993;48.748;9.166;2023-12-20T07:55:33;5.00;88.40
23633;DHT22;11993;48.748;9.166;2023-12-20T07:58:00;5.00;88.10
23633;DHT22;11993;48.748;9.166;2023-12-20T08:00:26;4.90;88.00
23633;DHT22;11993;48.748;9.166;2023-12-20T08:02:51;5.00;88.20
23633;DHT22;11993;48.748;9.166;2023-12-20T08:05:17;5.40;88.80
23633;DHT22;11993;48.748;9.166;2023-12-20T08:07:42;5.30;87.90
23633;DHT22;11993;48.748;9.166;2023-12-20T08:10:08;5.40;87.50
23633;DHT22;11993;48.748;9.166;2023-12-20T08:12:33;5.30;87.60
23633;DHT22;11993;48.748;9.166;2023-12-20T08:15:00;5.30;87.10
23633;DHT22;11993;48.748;9.166;2023-12-20T08:17:25;5.10;86.80
23633;DHT22;11993;48.748;9.166;2023-12-20T08:19:51;5.10;86.70
23633;DHT22;11993;48.748;9.166;2023-12-20T08:22:16;5.00;86.70
23633;DHT22;11993;48.748;9.166;2023-12-20T08:24:42;4.90;87.00
23633;DHT22;11993;48.748;9.166;2023-12-20T08:27:08;4.90;87.10
23633;DHT22;11993;48.748;9.166;2023-12-20T08:29:35;4.70;87.40
23633;DHT22;11993;48.748;9.166;2023-12-20T08:32:00;4.90;87.30
23633;DHT22;11993;48.748;9.166;2023-12-20T08:34:26;4.90;87.70
23633;DHT22;11993;48.748;9.166;2023-12-20T08:36:52;4.80;87.80
23633;DHT22;11993;48.748;9.166;2023-12-20T08:39:17;4.80;87.60
23633;DHT22;11993;48.748;9.166;2023-12-20T08:41:43;4.90;87.60
23633;DHT22;11993;48.748;9.166;2023-12-20T08:44:09;4.90;87.50
23633;DHT22;11993;48.748;9.166;2023-12-20T08:46:35;4.90;87.80
23633;DHT22;11993;48.748;9.166;2023-12-20T08:49:01;5.00;87.50
23633;DHT22;11993;48.748;9.166;2023-12-20T08:51:27;5.00;87.60
23633;DHT22;11993;48.748;9.166;2023-12-20T08:53:53;5.10;87.10
23633;DHT22;11993;48.748;9.166;2023-12-20T08:56:19;5.00;86.80
23633;DHT22;11993;48.748;9.166;2023-12-20T08:58:45;5.00;86.70
23633;DHT22;11993;48.748;9.166;2023-12-20T09:01:12;5.10;86.40
23633;DHT22;11993;48.748;9.166;2023-12-20T09:03:37;5.20;85.80
23633;DHT22;11993;48.748;9.166;2023-12-20T09:06:03;6.00;85.20
23633;DHT22;11993;48.748;9.166;2023-12-20T09:08:29;7.10;82.00
23633;DHT22;11993;48.748;9.166;2023-12-20T09:10:54;7.60;79.60
23633;DHT22;11993;48.748;9.166;2023-12-20T09:13:20;7.90;77.90
23633;DHT22;11993;48.748;9.166;2023-12-20T09:15:46;8.30;77.60
23633;DHT22;11993;48.748;9.166;2023-12-20T09:18:12;8.50;75.80
23633;DHT22;11993;48.748;9.166;2023-12-20T09:20:37;9.00;75.60
23633;DHT22;11993;48.748;9.166;2023-12-20T09:23:03;9.20;71.40
23633;DHT22;11993;48.748;9.166;2023-12-20T09:25:28;9.20;70.80
23633;DHT22;11993;48.748;9.166;2023-12-20T09:27:55;9.60;70.70
23633;DHT22;11993;48.748;9.166;2023-12-20T09:30:21;9.50;69.00
23633;DHT22;11993;48.748;9.166;2023-12-20T09:32:46;9.70;69.20
23633;DHT22;11993;48.748;9.166;2023-12-20T09:35:12;10.10;67.10
23633;DHT22;11993;48.748;9.166;2023-12-20T09:37:37;10.30;67.50
23633;DHT22;11993;48.748;9.166;2023-12-20T09:40:04;10.50;64.80
23633;DHT22;11993;48.748;9.166;2023-12-20T09:42:39;10.70;65.20
23633;DHT22;11993;48.748;9.166;2023-12-20T09:45:09;11.10;63.10
23633;DHT22;11993;48.748;9.166;2023-12-20T09:47:37;10.40;63.30
23633;DHT22;11993;48.748;9.166;2023-12-20T09:50:03;11.10;64.70
23633;DHT22;11993;48.748;9.166;2023-12-20T09:52:29;11.30;62.10
23633;DHT22;11993;48.748;9.166;2023-12-20T09:55:01;11.30;60.50
23633;DHT22;11993;48.748;9.166;2023-12-20T09:57:41;11.30;59.80
23633;DHT22;11993;48.748;9.166;2023-12-20T10:00:07;10.40;60.40
23633;DHT22;11993;48.748;9.166;2023-12-20T10:02:34;10.80;59.60
23633;DHT22;11993;48.748;9.166;2023-12-20T10:05:06;10.80;58.70
23633;DHT22;11993;48.748;9.166;2023-12-20T10:07:35;10.50;59.00
23633;DHT22;11993;48.748;9.166;2023-12-20T10:10:01;11.00;58.40
23633;DHT22;11993;48.748;9.166;2023-12-20T10:12:27;11.10;57.50
23633;DHT22;11993;48.748;9.166;2023-12-20T10:14:53;10.80;57.90
23633;DHT22;11993;48.748;9.166;2023-12-20T10:17:21;11.10;57.40
23633;DHT22;11993;48.748;9.166;2023-12-20T10:19:47;11.60;56.00
23633;DHT22;11993;48.748;9.166;2023-12-20T10:22:12;11.10;56.40
23633;DHT22;11993;48.748;9.166;2023-12-20T10:24:39;10.60;56.90
23633;DHT22;11993;48.748;9.166;2023-12-20T10:27:06;10.20;58.50
23633;DHT22;11993;48.748;9.166;2023-12-20T10:29:38;9.50;59.10
23633;DHT22;11993;48.748;9.166;2023-12-20T10:32:26;9.10;60.60
23633;DHT22;11993;48.748;9.166;2023-12-20T10:34:54;8.40;63.80
23633;DHT22;11993;48.748;9.166;2023-12-20T10:37:23;8.70;64.40
23633;DHT22;11993;48.748;9.166;2023-12-20T10:39:53;8.30;64.30
23633;DHT22;11993;48.748;9.166;2023-12-20T10:42:22;7.90;65.30
23633;DHT22;11993;48.748;9.166;2023-12-20T10:44:49;8.10;64.60
23633;DHT22;11993;48.748;9.166;2023-12-20T10:47:15;7.90;64.50
23633;DHT22;11993;48.748;9.166;2023-12-20T10:49:42;7.80;65.60
23633;DHT22;11993;48.748;9.166;2023-12-20T10:52:09;7.70;67.00
23633;DHT22;11993;48.748;9.166;2023-12-20T10:54:34;7.60;67.70
23633;DHT22;11993;48.748;9.166;2023-12-20T10:57:01;7.50;67.00
23633;DHT22;11993;48.748;9.166;2023-12-20T10:59:49;7.30;68.30
23633;DHT22;11993;48.748;9.166;2023-12-20T11:02:19;7.30;68.60
23633;DHT22;11993;48.748;9.166;2023-12-20T11:04:49;7.20;68.60
23633;DHT22;11993;48.748;9.166;2023-12-20T11:07:32;7.20;68.30
23633;DHT22;11993;48.748;9.166;2023-12-20T11:10:10;7.10;68.40
23633;DHT22;11993;48.748;9.166;2023-12-20T11:12:48;6.90;69.30
23633;DHT22;11993;48.748;9.166;2023-12-20T11:15:16;7.00;69.80
23633;DHT22;11993;48.748;9.166;2023-12-20T11:17:45;7.00;70.10
23633;DHT22;11993;48.748;9.166;2023-12-20T11:20:12;6.90;69.50
23633;DHT22;11993;48.748;9.166;2023-12-20T11:22:40;6.70;69.40
23633;DHT22;11993;48.748;9.166;2023-12-20T11:25:17;6.60;69.50
23633;DHT22;11993;48.748;9.166;2023-12-20T11:27:43;6.40;71.20
23633;DHT22;11993;48.748;9.166;2023-12-20T11:30:09;6.60;70.80
23633;DHT22;11993;48.748;9.166;2023-12-20T11:32:36;6.70;70.70
23633;DHT22;11993;48.748;9.166;2023-12-20T11:35:17;6.70;70.10
23633;DHT22;11993;48.748;9.166;2023-12-20T11:37:45;6.60;71.10
23633;DHT22;11993;48.748;9.166;2023-12-20T11:40:17;6.30;71.20
23633;DHT22;11993;48.748;9.166;2023-12-20T11:42:44;6.60;71.10
23633;DHT22;11993;48.748;9.166;2023-12-20T11:45:15;6.50;70.60
23633;DHT22;11993;48.748;9.166;2023-12-20T11:47:48;6.60;70.60
23633;DHT22;11993;48.748;9.166;2023-12-20T11:50:17;6.60;70.30
23633;DHT22;11993;48.748;9.166;2023-12-20T11:52:44;6.50;70.30
23633;DHT22;11993;48.748;9.166;2023-12-20T11:55:09;6.50;69.60
23633;DHT22;11993;48.748;9.166;2023-12-20T11:57:36;6.50;69.60
23633;DHT22;11993;48.748;9.166;2023-12-20T12:00:02;6.50;68.90
23633;DHT22;11993;48.748;9.166;2023-12-20T12:02:28;6.30;69.00
23633;DHT22;11993;48.748;9.166;2023-12-20T12:04:55;6.20;68.80
23633;DHT22;11993;48.748;9.166;2023-12-20T12:07:24;6.10;69.20
23633;DHT22;11993;48.748;9.166;2023-12-20T12:09:50;6.10;69.40
23633;DHT22;11993;48.748;9.166;2023-12-20T12:12:16;6.20;68.60
23633;DHT22;11993;48.748;9.166;2023-12-20T12:14:41;6.10;69.70
23633;DHT22;11993;48.748;9.166;2023-12-20T12:17:13;6.10;70.00
23633;DHT22;11993;48.748;9.166;2023-12-20T12:19:40;6.20;69.20
23633;DHT22;11993;48.748;9.166;2023-12-20T12:22:15;6.00;69.20
23633;DHT22;11993;48.748;9.166;2023-12-20T12:24:46;6.10;69.00
23633;DHT22;11993;48.748;9.166;2023-12-20T12:27:13;6.00;68.00
23633;DHT22;11993;48.748;9.166;2023-12-20T12:29:39;6.00;67.90
23633;DHT22;11993;48.748;9.166;2023-12-20T12:32:09;6.10;68.00
23633;DHT22;11993;48.748;9.166;2023-12-20T12:34:35;6.20;68.10
23633;DHT22;11993;48.748;9.166;2023-12-20T12:37:04;6.10;67.40
23633;DHT22;11993;48.748;9.166;2023-12-20T12:39:30;5.90;67.90
23633;DHT22;11993;48.748;9.166;2023-12-20T12:41:56;6.00;68.20
23633;DHT22;11993;48.748;9.166;2023-12-20T12:44:22;5.90;68.30
23633;DHT22;11993;48.748;9.166;2023-12-20T12:46:51;6.10;67.90
23633;DHT22;11993;48.748;9.166;2023-12-20T12:49:20;6.20;66.70
23633;DHT22;11993;48.748;9.166;2023-12-20T12:51:49;6.20;66.40
23633;DHT22;11993;48.748;9.166;2023-12-20T12:54:14;6.10;67.40
23633;DHT22;11993;48.748;9.166;2023-12-20T12:56:42;6.20;67.50
23633;DHT22;11993;48.748;9.166;2023-12-20T12:59:08;6.20;67.40
23633;DHT22;11993;48.748;9.166;2023-12-20T13:01:34;6.10;68.40
23633;DHT22;11993;48.748;9.166;2023-12-20T13:03:59;6.10;69.10
23633;DHT22;11993;48.748;9.166;2023-12-20T13:06:27;5.90;68.30
23633;DHT22;11993;48.748;9.166;2023-12-20T13:08:52;6.10;68.10
23633;DHT22;11993;48.748;9.166;2023-12-20T13:11:18;6.30;67.80
23633;DHT22;11993;48.748;9.166;2023-12-20T13:13:43;6.30;67.40
23633;DHT22;11993;48.748;9.166;2023-12-20T13:16:09;6.10;67.80
23633;DHT22;11993;48.748;9.166;2023-12-20T13:18:34;6.10;67.30
23633;DHT22;11993;48.748;9.166;2023-12-20T13:21:00;6.10;67.70
23633;DHT22;11993;48.748;9.166;2023-12-20T13:23:25;6.20;67.40
23633;DHT22;11993;48.748;9.166;2023-12-20T13:25:51;6.20;67.90
23633;DHT22;11993;48.748;9.166;2023-12-20T13:28:16;6.40;68.80
23633;DHT22;11993;48.748;9.166;2023-12-20T13:30:42;6.60;69.10
23633;DHT22;11993;48.748;9.166;2023-12-20T13:33:08;7.30;64.50
23633;DHT22;11993;48.748;9.166;2023-12-20T13:35:34;7.60;64.10
23633;DHT22;11993;48.748;9.166;2023-12-20T13:38:00;7.90;63.90
23633;DHT22;11993;48.748;9.166;2023-12-20T13:40:26;8.20;61.70
23633;DHT22;11993;48.748;9.166;2023-12-20T13:42:52;8.50;60.70
23633;DHT22;11993;48.748;9.166;2023-12-20T13:45:18;7.70;62.50
23633;DHT22;11993;48.748;9.166;2023-12-20T13:47:43;7.30;64.00
23633;DHT22;11993;48.748;9.166;2023-12-20T13:50:09;7.00;65.20
23633;DHT22;11993;48.748;9.166;2023-12-20T13:52:35;6.70;65.00
23633;DHT22;11993;48.748;9.166;2023-12-20T13:55:01;6.20;67.10
23633;DHT22;11993;48.748;9.166;2023-12-20T13:57:27;6.30;67.10
23633;DHT22;11993;48.748;9.166;2023-12-20T13:59:54;6.10;67.40
23633;DHT22;11993;48.748;9.166;2023-12-20T14:02:19;6.10;67.90
23633;DHT22;11993;48.748;9.166;2023-12-20T14:04:45;6.10;67.90
23633;DHT22;11993;48.748;9.166;2023-12-20T14:07:11;6.10;68.40
23633;DHT22;11993;48.748;9.166;2023-12-20T14:09:36;5.60;68.80
23633;DHT22;11993;48.748;9.166;2023-12-20T14:12:02;5.90;69.40
23633;DHT22;11993;48.748;9.166;2023-12-20T14:14:28;5.80;70.00
23633;DHT22;11993;48.748;9.166;2023-12-20T14:16:53;5.90;69.20
23633;DHT22;11993;48.748;9.166;2023-12-20T14:19:19;5.90;68.70
23633;DHT22;11993;48.748;9.166;2023-12-20T14:21:44;6.00;69.00
23633;DHT22;11993;48.748;9.166;2023-12-20T14:24:14;5.90;69.50
23633;DHT22;11993;48.748;9.166;2023-12-20T14:26:41;5.80;69.70
23633;DHT22;11993;48.748;9.166;2023-12-20T14:29:07;5.80;70.40
23633;DHT22;11993;48.748;9.166;2023-12-20T14:31:33;5.60;71.30
23633;DHT22;11993;48.748;9.166;2023-12-20T14:33:58;5.50;71.40
23633;DHT22;11993;48.748;9.166;2023-12-20T14:36:25;5.50;71.80
23633;DHT22;11993;48.748;9.166;2023-12-20T14:38:50;5.40;73.20
23633;DHT22;11993;48.748;9.166;2023-12-20T14:41:16;5.60;73.00
23633;DHT22;11993;48.748;9.166;2023-12-20T14:43:44;5.60;72.90
23633;DHT22;11993;48.748;9.166;2023-12-20T14:46:10;5.60;73.50
23633;DHT22;11993;48.748;9.166;2023-12-20T14:48:35;5.70;72.70
23633;DHT22;11993;48.748;9.166;2023-12-20T14:51:01;5.30;73.30
23633;DHT22;11993;48.748;9.166;2023-12-20T14:53:26;5.40;74.50
23633;DHT22;11993;48.748;9.166;2023-12-20T14:55:52;5.40;75.00
23633;DHT22;11993;48.748;9.166;2023-12-20T14:58:17;5.30;75.30
23633;DHT22;11993;48.748;9.166;2023-12-20T15:00:43;5.20;75.70
23633;DHT22;11993;48.748;9.166;2023-12-20T15:03:10;5.20;75.80
23633;DHT22;11993;48.748;9.166;2023-12-20T15:05:36;5.10;76.10
23633;DHT22;11993;48.748;9.166;2023-12-20T15:08:02;5.10;76.20
23633;DHT22;11993;48.748;9.166;2023-12-20T15:10:28;5.10;76.20
23633;DHT22;11993;48.748;9.166;2023-12-20T15:12:53;4.90;77.30
23633;DHT22;11993;48.748;9.166;2023-12-20T15:15:20;4.80;77.90
23633;DHT22;11993;48.748;9.166;2023-12-20T15:17:47;4.90;77.80
23633;DHT22;11993;48.748;9.166;2023-12-20T15:20:12;4.90;77.90
23633;DHT22;11993;48.748;9.166;2023-12-20T15:22:38;4.90;78.00
23633;DHT22;11993;48.748;9.166;2023-12-20T15:25:06;4.80;78.40
23633;DHT22;11993;48.748;9.166;2023-12-20T15:27:34;4.80;78.90
23633;DHT22;11993;48.748;9.166;2023-12-20T15:30:02;4.70;79.20
23633;DHT22;11993;48.748;9.166;2023-12-20T15:32:28;4.70;79.40
23633;DHT22;11993;48.748;9.166;2023-12-20T15:34:54;4.60;79.80
23633;DHT22;11993;48.748;9.166;2023-12-20T15:37:20;4.60;80.00
23633;DHT22;11993;48.748;9.166;2023-12-20T15:39:46;4.50;80.20